sensor_id;sensor_type;location;lat;lon;timestamp;P1;durP1;ratioP1;P2;durP2;ratioP2
12970;SDS011;6550;48.650;8.774;2023-02-21T00:01:50;1.60;;;1.17;;
12970;SDS011;6550;48.650;8.774;2023-02-21T00:04:36;2.43;;;1.30;;
12970;SDS011;6550;48.650;8.774;2023-02-21T00:07:23;2.53;;;1.70;;
12970;SDS011;6550;48.650;8.774;2023-02-21T00:10:10;4.83;;;1.67;;
12970;SDS011;6550;48.650;8.774;2023-02-21T00:12:57;2.10;;;1.50;;
12970;SDS011;6550;48.650;8.774;2023-02-21T00:15:43;2.10;;;1.50;;
12970;SDS011;6550;48.650;8.774;2023-02-21T00:18:34;2.27;;;1.40;;
12970;SDS011;6550;48.650;8.774;2023-02-21T00:21:23;2.80;;;1.57;;
12970;SDS011;6550;48.650;8.774;2023-02-21T00:24:14;1.37;;;1.27;;
12970;SDS011;6550;48.650;8.774;2023-02-21T00:27:04;4.47;;;1.60;;
12970;SDS011;6550;48.650;8.774;2023-02-21T00:29:49;2.47;;;1.20;;
12970;SDS011;6550;48.650;8.774;2023-02-21T00:32:35;1.43;;;1.23;;
12970;SDS011;6550;48.650;8.774;2023-02-21T00:35:22;2.03;;;1.40;;
12970;SDS011;6550;48.650;8.774;2023-02-21T00:38:09;2.17;;;1.40;;
12970;SDS011;6550;48.650;8.774;2023-02-21T00:40:57;2.53;;;1.67;;
12970;SDS011;6550;48.650;8.774;2023-02-21T00:43:43;2.17;;;1.40;;
12970;SDS011;6550;48.650;8.774;2023-02-21T00:46:28;3.23;;;1.40;;
12970;SDS011;6550;48.650;8.774;2023-02-21T00:49:14;2.40;;;1.67;;
12970;SDS011;6550;48.650;8.774;2023-02-21T00:51:59;2.10;;;1.60;;
12970;SDS011;6550;48.650;8.774;2023-02-21T00:54:45;3.85;;;1.60;;
12970;SDS011;6550;48.650;8.774;2023-02-21T00:57:32;2.70;;;1.43;;
12970;SDS011;6550;48.650;8.774;2023-02-21T01:00:19;1.27;;;1.17;;
12970;SDS011;6550;48.650;8.774;2023-02-21T01:03:05;3.33;;;1.30;;
12970;SDS011;6550;48.650;8.774;2023-02-21T01:05:52;2.50;;;1.47;;
12970;SDS011;6550;48.650;8.774;2023-02-21T01:08:44;5.67;;;1.70;;
12970;SDS011;6550;48.650;8.774;2023-02-21T01:11:31;3.00;;;1.70;;
12970;SDS011;6550;48.650;8.774;2023-02-21T01:14:16;2.17;;;1.10;;
12970;SDS011;6550;48.650;8.774;2023-02-21T01:17:01;2.10;;;1.30;;
12970;SDS011;6550;48.650;8.774;2023-02-21T01:19:47;3.80;;;1.33;;
12970;SDS011;6550;48.650;8.774;2023-02-21T01:22:35;2.60;;;1.40;;
12970;SDS011;6550;48.650;8.774;2023-02-21T01:25:20;2.60;;;1.80;;
12970;SDS011;6550;48.650;8.774;2023-02-21T01:28:08;2.33;;;1.40;;
12970;SDS011;6550;48.650;8.774;2023-02-21T01:30:53;2.73;;;1.27;;
12970;SDS011;6550;48.650;8.774;2023-02-21T01:33:39;1.93;;;1.20;;
12970;SDS011;6550;48.650;8.774;2023-02-21T01:36:25;2.27;;;1.67;;
12970;SDS011;6550;48.650;8.774;2023-02-21T01:39:11;1.47;;;1.20;;
12970;SDS011;6550;48.650;8.774;2023-02-21T01:41:57;1.87;;;1.27;;
12970;SDS011;6550;48.650;8.774;2023-02-21T01:44:43;2.37;;;1.30;;
12970;SDS011;6550;48.650;8.774;2023-02-21T01:47:30;2.90;;;1.50;;
12970;SDS011;6550;48.650;8.774;2023-02-21T01:50:23;1.70;;;1.33;;
12970;SDS011;6550;48.650;8.774;2023-02-21T01:53:21;3.03;;;1.40;;
12970;SDS011;6550;48.650;8.774;2023-02-21T01:56:10;2.10;;;1.30;;
12970;SDS011;6550;48.650;8.774;2023-02-21T01:58:56;2.30;;;1.60;;
12970;SDS011;6550;48.650;8.774;2023-02-21T02:01:49;2.53;;;1.40;;
12970;SDS011;6550;48.650;8.774;2023-02-21T02:04:40;2.93;;;1.43;;
12970;SDS011;6550;48.650;8.774;2023-02-21T02:07:27;3.17;;;1.27;;
12970;SDS011;6550;48.650;8.774;2023-02-21T02:10:12;2.57;;;1.40;;
12970;SDS011;6550;48.650;8.774;2023-02-21T02:40:01;2.65;;;1.67;;
12970;SDS011;6550;48.650;8.774;2023-02-21T02:42:35;2.80;;;1.40;;
12970;SDS011;6550;48.650;8.774;2023-02-21T02:45:25;1.73;;;1.40;;
12970;SDS011;6550;48.650;8.774;2023-02-21T02:47:56;3.57;;;1.80;;
12970;SDS011;6550;48.650;8.774;2023-02-21T02:50:28;1.20;;;1.10;;
12970;SDS011;6550;48.650;8.774;2023-02-21T02:52:59;2.83;;;1.33;;
12970;SDS011;6550;48.650;8.774;2023-02-21T02:55:40;2.22;;;1.48;;
12970;SDS011;6550;48.650;8.774;2023-02-21T02:58:22;2.50;;;1.40;;
12970;SDS011;6550;48.650;8.774;2023-02-21T03:00:56;2.23;;;1.23;;
12970;SDS011;6550;48.650;8.774;2023-02-21T03:11:35;3.23;;;1.23;;
12970;SDS011;6550;48.650;8.774;2023-02-21T03:14:19;1.83;;;1.33;;
12970;SDS011;6550;48.650;8.774;2023-02-21T03:16:50;1.80;;;1.13;;
12970;SDS011;6550;48.650;8.774;2023-02-21T03:19:24;2.60;;;1.40;;
12970;SDS011;6550;48.650;8.774;2023-02-21T03:21:55;4.80;;;1.30;;
12970;SDS011;6550;48.650;8.774;2023-02-21T03:24:25;2.67;;;1.53;;
12970;SDS011;6550;48.650;8.774;2023-02-21T03:26:55;3.50;;;1.40;;
12970;SDS011;6550;48.650;8.774;2023-02-21T03:29:25;2.07;;;1.40;;
12970;SDS011;6550;48.650;8.774;2023-02-21T03:31:57;2.37;;;1.60;;
12970;SDS011;6550;48.650;8.774;2023-02-21T03:34:38;1.93;;;1.30;;
12970;SDS011;6550;48.650;8.774;2023-02-21T03:37:06;1.37;;;1.13;;
12970;SDS011;6550;48.650;8.774;2023-02-21T03:39:37;3.50;;;1.83;;
12970;SDS011;6550;48.650;8.774;2023-02-21T03:42:04;1.73;;;1.33;;
12970;SDS011;6550;48.650;8.774;2023-02-21T03:44:31;1.63;;;1.20;;
12970;SDS011;6550;48.650;8.774;2023-02-21T03:47:00;2.67;;;1.40;;
12970;SDS011;6550;48.650;8.774;2023-02-21T03:49:32;2.23;;;1.30;;
12970;SDS011;6550;48.650;8.774;2023-02-21T03:52:01;2.37;;;1.30;;
12970;SDS011;6550;48.650;8.774;2023-02-21T03:54:27;2.13;;;1.43;;
12970;SDS011;6550;48.650;8.774;2023-02-21T03:56:56;3.77;;;1.33;;
12970;SDS011;6550;48.650;8.774;2023-02-21T03:59:23;1.70;;;1.50;;
12970;SDS011;6550;48.650;8.774;2023-02-21T04:01:55;1.47;;;1.30;;
12970;SDS011;6550;48.650;8.774;2023-02-21T04:04:22;3.43;;;1.40;;
12970;SDS011;6550;48.650;8.774;2023-02-21T04:06:49;2.00;;;1.50;;
12970;SDS011;6550;48.650;8.774;2023-02-21T04:09:15;2.20;;;1.40;;
12970;SDS011;6550;48.650;8.774;2023-02-21T04:11:43;3.23;;;1.50;;
12970;SDS011;6550;48.650;8.774;2023-02-21T04:14:11;1.20;;;0.90;;
12970;SDS011;6550;48.650;8.774;2023-02-21T04:16:41;2.30;;;1.47;;
12970;SDS011;6550;48.650;8.774;2023-02-21T04:19:12;2.17;;;1.45;;
12970;SDS011;6550;48.650;8.774;2023-02-21T04:21:39;3.70;;;1.30;;
12970;SDS011;6550;48.650;8.774;2023-02-21T04:24:06;2.87;;;1.30;;
12970;SDS011;6550;48.650;8.774;2023-02-21T04:26:32;1.53;;;1.43;;
12970;SDS011;6550;48.650;8.774;2023-02-21T04:29:00;2.17;;;1.53;;
12970;SDS011;6550;48.650;8.774;2023-02-21T04:31:27;1.77;;;1.27;;
12970;SDS011;6550;48.650;8.774;2023-02-21T04:33:54;2.67;;;1.50;;
12970;SDS011;6550;48.650;8.774;2023-02-21T04:36:37;2.63;;;1.47;;
12970;SDS011;6550;48.650;8.774;2023-02-21T04:39:06;3.30;;;1.40;;
12970;SDS011;6550;48.650;8.774;2023-02-21T04:41:33;1.97;;;1.30;;
12970;SDS011;6550;48.650;8.774;2023-02-21T04:44:02;3.10;;;1.60;;
12970;SDS011;6550;48.650;8.774;2023-02-21T04:46:29;2.65;;;1.77;;
12970;SDS011;6550;48.650;8.774;2023-02-21T04:48:58;3.30;;;1.53;;
12970;SDS011;6550;48.650;8.774;2023-02-21T04:51:27;2.47;;;1.40;;
12970;SDS011;6550;48.650;8.774;2023-02-21T04:53:54;2.87;;;1.53;;
12970;SDS011;6550;48.650;8.774;2023-02-21T04:56:27;4.83;;;1.73;;
12970;SDS011;6550;48.650;8.774;2023-02-21T04:58:54;4.07;;;1.30;;
12970;SDS011;6550;48.650;8.774;2023-02-21T05:01:27;1.93;;;1.43;;
12970;SDS011;6550;48.650;8.774;2023-02-21T05:03:57;2.97;;;1.73;;
12970;SDS011;6550;48.650;8.774;2023-02-21T05:06:28;3.00;;;1.50;;
12970;SDS011;6550;48.650;8.774;2023-02-21T05:08:56;1.80;;;1.53;;
12970;SDS011;6550;48.650;8.774;2023-02-21T05:11:24;3.23;;;1.60;;
12970;SDS011;6550;48.650;8.774;2023-02-21T05:13:51;2.50;;;1.40;;
12970;SDS011;6550;48.650;8.774;2023-02-21T05:16:19;5.23;;;1.63;;
12970;SDS011;6550;48.650;8.774;2023-02-21T05:18:46;5.00;;;1.90;;
12970;SDS011;6550;48.650;8.774;2023-02-21T05:21:17;3.13;;;1.77;;
12970;SDS011;6550;48.650;8.774;2023-02-21T05:23:45;2.40;;;1.53;;
12970;SDS011;6550;48.650;8.774;2023-02-21T05:26:25;2.57;;;1.60;;
12970;SDS011;6550;48.650;8.774;2023-02-21T05:28:57;1.73;;;1.30;;
12970;SDS011;6550;48.650;8.774;2023-02-21T05:31:29;2.80;;;1.40;;
12970;SDS011;6550;48.650;8.774;2023-02-21T05:33:58;4.70;;;1.60;;
12970;SDS011;6550;48.650;8.774;2023-02-21T05:36:30;3.30;;;1.50;;
12970;SDS011;6550;48.650;8.774;2023-02-21T05:38:57;3.33;;;1.73;;
12970;SDS011;6550;48.650;8.774;2023-02-21T05:41:23;1.80;;;1.53;;
12970;SDS011;6550;48.650;8.774;2023-02-21T05:43:50;3.87;;;1.97;;
12970;SDS011;6550;48.650;8.774;2023-02-21T05:46:33;4.78;;;2.20;;
12970;SDS011;6550;48.650;8.774;2023-02-21T05:49:01;2.47;;;1.70;;
12970;SDS011;6550;48.650;8.774;2023-02-21T05:51:35;2.00;;;1.80;;
12970;SDS011;6550;48.650;8.774;2023-02-21T05:54:04;2.67;;;2.00;;
12970;SDS011;6550;48.650;8.774;2023-02-21T05:56:38;4.10;;;1.67;;
12970;SDS011;6550;48.650;8.774;2023-02-21T05:59:10;2.47;;;1.87;;
12970;SDS011;6550;48.650;8.774;2023-02-21T06:01:38;3.67;;;1.90;;
12970;SDS011;6550;48.650;8.774;2023-02-21T06:04:09;2.33;;;1.77;;
12970;SDS011;6550;48.650;8.774;2023-02-21T06:06:39;3.43;;;2.00;;
12970;SDS011;6550;48.650;8.774;2023-02-21T06:09:06;3.83;;;1.70;;
12970;SDS011;6550;48.650;8.774;2023-02-21T06:11:35;3.30;;;1.97;;
12970;SDS011;6550;48.650;8.774;2023-02-21T06:14:03;3.72;;;2.03;;
12970;SDS011;6550;48.650;8.774;2023-02-21T06:16:35;2.77;;;1.83;;
12970;SDS011;6550;48.650;8.774;2023-02-21T06:19:04;2.60;;;2.07;;
12970;SDS011;6550;48.650;8.774;2023-02-21T06:21:36;3.40;;;1.97;;
12970;SDS011;6550;48.650;8.774;2023-02-21T06:24:08;1.67;;;1.50;;
12970;SDS011;6550;48.650;8.774;2023-02-21T06:26:39;2.03;;;1.83;;
12970;SDS011;6550;48.650;8.774;2023-02-21T06:29:07;2.37;;;1.80;;
12970;SDS011;6550;48.650;8.774;2023-02-21T06:31:38;2.87;;;1.93;;
12970;SDS011;6550;48.650;8.774;2023-02-21T06:34:05;3.93;;;2.07;;
12970;SDS011;6550;48.650;8.774;2023-02-21T06:36:39;4.60;;;2.43;;
12970;SDS011;6550;48.650;8.774;2023-02-21T06:39:06;2.80;;;1.80;;
12970;SDS011;6550;48.650;8.774;2023-02-21T06:41:35;4.10;;;2.10;;
12970;SDS011;6550;48.650;8.774;2023-02-21T06:44:04;3.60;;;1.90;;
12970;SDS011;6550;48.650;8.774;2023-02-21T06:46:30;1.93;;;1.80;;
12970;SDS011;6550;48.650;8.774;2023-02-21T06:48:57;4.50;;;2.30;;
12970;SDS011;6550;48.650;8.774;2023-02-21T06:51:24;3.77;;;1.97;;
12970;SDS011;6550;48.650;8.774;2023-02-21T06:53:57;3.43;;;1.80;;
12970;SDS011;6550;48.650;8.774;2023-02-21T06:56:24;2.73;;;2.07;;
12970;SDS011;6550;48.650;8.774;2023-02-21T06:58:52;4.30;;;2.35;;
12970;SDS011;6550;48.650;8.774;2023-02-21T07:01:19;3.30;;;2.10;;
12970;SDS011;6550;48.650;8.774;2023-02-21T07:03:46;3.13;;;1.97;;
12970;SDS011;6550;48.650;8.774;2023-02-21T07:06:19;3.13;;;2.10;;
12970;SDS011;6550;48.650;8.774;2023-02-21T07:08:46;2.80;;;1.73;;
12970;SDS011;6550;48.650;8.774;2023-02-21T07:11:13;2.60;;;1.80;;
12970;SDS011;6550;48.650;8.774;2023-02-21T07:13:45;3.73;;;2.07;;
12970;SDS011;6550;48.650;8.774;2023-02-21T07:16:18;3.30;;;1.93;;
12970;SDS011;6550;48.650;8.774;2023-02-21T07:18:48;3.30;;;2.17;;
12970;SDS011;6550;48.650;8.774;2023-02-21T07:21:20;3.70;;;2.10;;
12970;SDS011;6550;48.650;8.774;2023-02-21T07:23:49;4.03;;;1.73;;
12970;SDS011;6550;48.650;8.774;2023-02-21T07:26:16;1.97;;;1.83;;
12970;SDS011;6550;48.650;8.774;2023-02-21T07:28:42;2.60;;;1.77;;
12970;SDS011;6550;48.650;8.774;2023-02-21T07:31:12;4.40;;;2.30;;
12970;SDS011;6550;48.650;8.774;2023-02-21T07:33:42;7.23;;;1.90;;
12970;SDS011;6550;48.650;8.774;2023-02-21T07:36:11;5.60;;;2.33;;
12970;SDS011;6550;48.650;8.774;2023-02-21T07:38:43;3.50;;;2.23;;
12970;SDS011;6550;48.650;8.774;2023-02-21T07:41:12;6.97;;;2.43;;
12970;SDS011;6550;48.650;8.774;2023-02-21T07:43:41;4.33;;;2.70;;
12970;SDS011;6550;48.650;8.774;2023-02-21T07:46:08;4.17;;;2.47;;
12970;SDS011;6550;48.650;8.774;2023-02-21T07:48:38;6.30;;;2.37;;
12970;SDS011;6550;48.650;8.774;2023-02-21T07:51:05;4.33;;;3.10;;
12970;SDS011;6550;48.650;8.774;2023-02-21T07:53:33;4.17;;;3.00;;
12970;SDS011;6550;48.650;8.774;2023-02-21T07:56:01;5.27;;;3.30;;
12970;SDS011;6550;48.650;8.774;2023-02-21T07:58:30;6.43;;;3.53;;
12970;SDS011;6550;48.650;8.774;2023-02-21T08:00:57;5.17;;;3.13;;
12970;SDS011;6550;48.650;8.774;2023-02-21T08:03:24;4.23;;;3.07;;
12970;SDS011;6550;48.650;8.774;2023-02-21T08:05:53;6.20;;;3.07;;
12970;SDS011;6550;48.650;8.774;2023-02-21T08:08:22;5.37;;;3.47;;
12970;SDS011;6550;48.650;8.774;2023-02-21T08:10:49;3.90;;;3.23;;
12970;SDS011;6550;48.650;8.774;2023-02-21T08:13:20;8.33;;;3.83;;
12970;SDS011;6550;48.650;8.774;2023-02-21T08:15:47;6.73;;;3.37;;
12970;SDS011;6550;48.650;8.774;2023-02-21T08:18:15;6.13;;;3.40;;
12970;SDS011;6550;48.650;8.774;2023-02-21T08:20:46;7.03;;;3.87;;
12970;SDS011;6550;48.650;8.774;2023-02-21T08:23:13;8.63;;;3.30;;
12970;SDS011;6550;48.650;8.774;2023-02-21T08:25:44;5.53;;;3.53;;
12970;SDS011;6550;48.650;8.774;2023-02-21T08:28:14;5.13;;;3.63;;
12970;SDS011;6550;48.650;8.774;2023-02-21T08:30:41;6.30;;;3.20;;
12970;SDS011;6550;48.650;8.774;2023-02-21T08:33:08;4.80;;;3.20;;
12970;SDS011;6550;48.650;8.774;2023-02-21T08:35:37;3.53;;;2.87;;
12970;SDS011;6550;48.650;8.774;2023-02-21T08:38:04;4.57;;;3.23;;
12970;SDS011;6550;48.650;8.774;2023-02-21T08:40:31;6.27;;;3.50;;
12970;SDS011;6550;48.650;8.774;2023-02-21T08:43:00;8.98;;;3.42;;
12970;SDS011;6550;48.650;8.774;2023-02-21T08:45:28;4.63;;;3.33;;
12970;SDS011;6550;48.650;8.774;2023-02-21T08:47:55;6.00;;;3.90;;
12970;SDS011;6550;48.650;8.774;2023-02-21T08:50:26;3.77;;;3.40;;
12970;SDS011;6550;48.650;8.774;2023-02-21T08:52:55;3.93;;;3.47;;
12970;SDS011;6550;48.650;8.774;2023-02-21T08:55:22;2.30;;;2.10;;
12970;SDS011;6550;48.650;8.774;2023-02-21T08:57:50;2.47;;;2.27;;
12970;SDS011;6550;48.650;8.774;2023-02-21T09:00:23;3.90;;;2.73;;
12970;SDS011;6550;48.650;8.774;2023-02-21T09:02:53;3.70;;;3.10;;
12970;SDS011;6550;48.650;8.774;2023-02-21T09:05:26;4.20;;;3.00;;
12970;SDS011;6550;48.650;8.774;2023-02-21T09:07:59;4.10;;;3.10;;
12970;SDS011;6550;48.650;8.774;2023-02-21T09:10:31;4.73;;;3.23;;
12970;SDS011;6550;48.650;8.774;2023-02-21T09:13:00;5.57;;;3.13;;
12970;SDS011;6550;48.650;8.774;2023-02-21T09:15:30;4.63;;;3.60;;
12970;SDS011;6550;48.650;8.774;2023-02-21T09:18:01;5.63;;;3.60;;
12970;SDS011;6550;48.650;8.774;2023-02-21T09:20:31;5.17;;;3.70;;
12970;SDS011;6550;48.650;8.774;2023-02-21T09:22:57;4.33;;;3.27;;
12970;SDS011;6550;48.650;8.774;2023-02-21T09:25:29;4.30;;;3.43;;
12970;SDS011;6550;48.650;8.774;2023-02-21T09:27:56;7.00;;;4.10;;
12970;SDS011;6550;48.650;8.774;2023-02-21T09:30:25;5.73;;;3.50;;
12970;SDS011;6550;48.650;8.774;2023-02-21T09:32:52;4.30;;;3.43;;
12970;SDS011;6550;48.650;8.774;2023-02-21T09:35:22;5.80;;;3.23;;
12970;SDS011;6550;48.650;8.774;2023-02-21T09:37:56;4.73;;;3.60;;
12970;SDS011;6550;48.650;8.774;2023-02-21T09:40:35;5.87;;;3.23;;
12970;SDS011;6550;48.650;8.774;2023-02-21T09:43:42;5.03;;;3.43;;
12970;SDS011;6550;48.650;8.774;2023-02-21T09:46:31;3.95;;;3.33;;
12970;SDS011;6550;48.650;8.774;2023-02-21T09:49:00;3.67;;;3.00;;
12970;SDS011;6550;48.650;8.774;2023-02-21T09:51:31;4.67;;;3.73;;
12970;SDS011;6550;48.650;8.774;2023-02-21T09:54:02;6.73;;;3.73;;
12970;SDS011;6550;48.650;8.774;2023-02-21T09:56:33;5.03;;;3.60;;
12970;SDS011;6550;48.650;8.774;2023-02-21T09:59:07;3.47;;;3.17;;
12970;SDS011;6550;48.650;8.774;2023-02-21T10:10:16;2.77;;;2.40;;
12970;SDS011;6550;48.650;8.774;2023-02-21T10:12:45;6.80;;;2.40;;
12970;SDS011;6550;48.650;8.774;2023-02-21T10:23:27;4.20;;;2.77;;
12970;SDS011;6550;48.650;8.774;2023-02-21T10:26:08;4.77;;;2.10;;
12970;SDS011;6550;48.650;8.774;2023-02-21T10:28:39;5.13;;;2.43;;
12970;SDS011;6550;48.650;8.774;2023-02-21T10:34:09;8.47;;;2.30;;
12970;SDS011;6550;48.650;8.774;2023-02-21T10:36:46;6.70;;;2.77;;
12970;SDS011;6550;48.650;8.774;2023-02-21T10:39:16;3.97;;;2.43;;
12970;SDS011;6550;48.650;8.774;2023-02-21T10:41:45;4.17;;;2.30;;
12970;SDS011;6550;48.650;8.774;2023-02-21T10:44:17;4.97;;;2.37;;
12970;SDS011;6550;48.650;8.774;2023-02-21T10:46:57;7.07;;;2.33;;
12970;SDS011;6550;48.650;8.774;2023-02-21T10:52:25;3.17;;;1.90;;
12970;SDS011;6550;48.650;8.774;2023-02-21T10:55:00;3.03;;;2.30;;
12970;SDS011;6550;48.650;8.774;2023-02-21T10:57:43;3.13;;;2.10;;
12970;SDS011;6550;48.650;8.774;2023-02-21T11:00:53;2.43;;;1.90;;
12970;SDS011;6550;48.650;8.774;2023-02-21T11:03:01;4.90;;;2.60;;
12970;SDS011;6550;48.650;8.774;2023-02-21T11:05:32;3.42;;;2.38;;
12970;SDS011;6550;48.650;8.774;2023-02-21T11:08:04;7.07;;;2.10;;
12970;SDS011;6550;48.650;8.774;2023-02-21T11:10:40;3.33;;;1.70;;
12970;SDS011;6550;48.650;8.774;2023-02-21T11:15:39;3.00;;;1.90;;
12970;SDS011;6550;48.650;8.774;2023-02-21T11:20:49;3.42;;;1.98;;
12970;SDS011;6550;48.650;8.774;2023-02-21T11:25:57;2.97;;;1.70;;
12970;SDS011;6550;48.650;8.774;2023-02-21T11:28:35;2.17;;;1.50;;
12970;SDS011;6550;48.650;8.774;2023-02-21T11:36:34;1.60;;;1.50;;
12970;SDS011;6550;48.650;8.774;2023-02-21T11:41:52;1.60;;;1.37;;
12970;SDS011;6550;48.650;8.774;2023-02-21T11:44:22;3.47;;;1.50;;
12970;SDS011;6550;48.650;8.774;2023-02-21T11:47:13;1.97;;;1.13;;
12970;SDS011;6550;48.650;8.774;2023-02-21T11:49:53;1.97;;;1.30;;
12970;SDS011;6550;48.650;8.774;2023-02-21T11:52:32;2.33;;;1.17;;
12970;SDS011;6550;48.650;8.774;2023-02-21T11:55:03;3.93;;;1.37;;
12970;SDS011;6550;48.650;8.774;2023-02-21T12:09:31;1.63;;;0.93;;
12970;SDS011;6550;48.650;8.774;2023-02-21T12:12:29;1.57;;;1.07;;
12970;SDS011;6550;48.650;8.774;2023-02-21T12:15:20;0.77;;;0.77;;
12970;SDS011;6550;48.650;8.774;2023-02-21T12:23:30;1.07;;;0.80;;
12970;SDS011;6550;48.650;8.774;2023-02-21T12:26:17;3.00;;;0.90;;
12970;SDS011;6550;48.650;8.774;2023-02-21T12:32:06;0.97;;;0.90;;
12970;SDS011;6550;48.650;8.774;2023-02-21T12:42:50;3.20;;;0.90;;
12970;SDS011;6550;48.650;8.774;2023-02-21T12:48:05;1.87;;;0.80;;
12970;SDS011;6550;48.650;8.774;2023-02-21T12:50:57;0.90;;;0.70;;
12970;SDS011;6550;48.650;8.774;2023-02-21T12:53:32;3.30;;;0.70;;
12970;SDS011;6550;48.650;8.774;2023-02-21T12:56:15;0.57;;;0.50;;
12970;SDS011;6550;48.650;8.774;2023-02-21T12:58:45;1.97;;;0.70;;
12970;SDS011;6550;48.650;8.774;2023-02-21T13:01:27;1.63;;;0.70;;
12970;SDS011;6550;48.650;8.774;2023-02-21T13:07:10;2.03;;;0.70;;
12970;SDS011;6550;48.650;8.774;2023-02-21T13:09:49;1.03;;;0.90;;
12970;SDS011;6550;48.650;8.774;2023-02-21T13:12:23;1.37;;;0.73;;
12970;SDS011;6550;48.650;8.774;2023-02-21T13:18:05;1.50;;;0.60;;
12970;SDS011;6550;48.650;8.774;2023-02-21T13:20:39;0.83;;;0.60;;
12970;SDS011;6550;48.650;8.774;2023-02-21T13:29:00;1.17;;;0.50;;
12970;SDS011;6550;48.650;8.774;2023-02-21T13:31:31;0.60;;;0.60;;
12970;SDS011;6550;48.650;8.774;2023-02-21T13:34:05;0.83;;;0.40;;
12970;SDS011;6550;48.650;8.774;2023-02-21T13:57:47;1.80;;;0.57;;
12970;SDS011;6550;48.650;8.774;2023-02-21T14:11:10;5.00;;;1.17;;
12970;SDS011;6550;48.650;8.774;2023-02-21T14:19:16;3.43;;;1.10;;
12970;SDS011;6550;48.650;8.774;2023-02-21T14:21:59;7.33;;;1.47;;
12970;SDS011;6550;48.650;8.774;2023-02-21T14:24:35;4.82;;;1.20;;
12970;SDS011;6550;48.650;8.774;2023-02-21T14:30:26;3.87;;;1.13;;
12970;SDS011;6550;48.650;8.774;2023-02-21T14:32:34;3.37;;;0.93;;
12970;SDS011;6550;48.650;8.774;2023-02-21T14:45:58;4.40;;;1.00;;
12970;SDS011;6550;48.650;8.774;2023-02-21T15:05:03;4.63;;;0.82;;
12970;SDS011;6550;48.650;8.774;2023-02-21T15:07:59;4.60;;;0.70;;
12970;SDS011;6550;48.650;8.774;2023-02-21T15:10:42;3.97;;;0.87;;
12970;SDS011;6550;48.650;8.774;2023-02-21T15:13:31;4.67;;;0.83;;
12970;SDS011;6550;48.650;8.774;2023-02-21T15:16:03;3.07;;;0.83;;
12970;SDS011;6550;48.650;8.774;2023-02-21T15:18:32;0.73;;;0.73;;
12970;SDS011;6550;48.650;8.774;2023-02-21T15:21:05;1.33;;;0.90;;
12970;SDS011;6550;48.650;8.774;2023-02-21T15:23:36;0.80;;;0.80;;
12970;SDS011;6550;48.650;8.774;2023-02-21T15:31:50;0.60;;;0.60;;
12970;SDS011;6550;48.650;8.774;2023-02-21T15:34:20;0.53;;;0.53;;
12970;SDS011;6550;48.650;8.774;2023-02-21T15:36:57;1.70;;;0.70;;
12970;SDS011;6550;48.650;8.774;2023-02-21T15:39:29;1.50;;;0.80;;
12970;SDS011;6550;48.650;8.774;2023-02-21T15:41:59;1.00;;;0.70;;
12970;SDS011;6550;48.650;8.774;2023-02-21T15:57:58;1.50;;;0.70;;
12970;SDS011;6550;48.650;8.774;2023-02-21T16:00:37;2.37;;;0.80;;
12970;SDS011;6550;48.650;8.774;2023-02-21T16:06:12;0.70;;;0.70;;
12970;SDS011;6550;48.650;8.774;2023-02-21T16:11:18;1.33;;;0.97;;
12970;SDS011;6550;48.650;8.774;2023-02-21T16:13:45;1.50;;;0.90;;
12970;SDS011;6550;48.650;8.774;2023-02-21T16:16:12;1.73;;;0.80;;
12970;SDS011;6550;48.650;8.774;2023-02-21T16:18:39;2.83;;;1.07;;
12970;SDS011;6550;48.650;8.774;2023-02-21T16:21:06;1.20;;;0.73;;
12970;SDS011;6550;48.650;8.774;2023-02-21T16:23:46;4.40;;;0.90;;
12970;SDS011;6550;48.650;8.774;2023-02-21T16:28:44;1.33;;;0.77;;
12970;SDS011;6550;48.650;8.774;2023-02-21T16:31:15;1.33;;;0.90;;
12970;SDS011;6550;48.650;8.774;2023-02-21T16:33:49;1.73;;;0.80;;
12970;SDS011;6550;48.650;8.774;2023-02-21T16:36:21;1.73;;;1.03;;
12970;SDS011;6550;48.650;8.774;2023-02-21T16:38:50;1.53;;;0.90;;
12970;SDS011;6550;48.650;8.774;2023-02-21T16:41:19;0.63;;;0.63;;
12970;SDS011;6550;48.650;8.774;2023-02-21T16:43:49;1.40;;;0.60;;
12970;SDS011;6550;48.650;8.774;2023-02-21T16:46:26;3.60;;;0.70;;
12970;SDS011;6550;48.650;8.774;2023-02-21T16:48:55;3.03;;;0.60;;
12970;SDS011;6550;48.650;8.774;2023-02-21T16:51:24;2.10;;;0.77;;
12970;SDS011;6550;48.650;8.774;2023-02-21T16:53:58;2.50;;;0.67;;
12970;SDS011;6550;48.650;8.774;2023-02-21T16:56:25;2.50;;;0.68;;
12970;SDS011;6550;48.650;8.774;2023-02-21T16:58:53;0.60;;;0.53;;
12970;SDS011;6550;48.650;8.774;2023-02-21T17:01:28;1.30;;;0.63;;
12970;SDS011;6550;48.650;8.774;2023-02-21T17:03:58;0.50;;;0.50;;
12970;SDS011;6550;48.650;8.774;2023-02-21T17:06:27;2.90;;;0.80;;
12970;SDS011;6550;48.650;8.774;2023-02-21T17:08:54;1.37;;;0.73;;
12970;SDS011;6550;48.650;8.774;2023-02-21T17:11:24;2.45;;;0.82;;
12970;SDS011;6550;48.650;8.774;2023-02-21T17:13:51;1.17;;;0.80;;
12970;SDS011;6550;48.650;8.774;2023-02-21T17:16:18;1.43;;;0.70;;
12970;SDS011;6550;48.650;8.774;2023-02-21T17:18:45;3.00;;;0.50;;
12970;SDS011;6550;48.650;8.774;2023-02-21T17:21:16;4.13;;;0.63;;
12970;SDS011;6550;48.650;8.774;2023-02-21T17:23:43;2.63;;;0.60;;
12970;SDS011;6550;48.650;8.774;2023-02-21T17:26:14;1.30;;;0.68;;
12970;SDS011;6550;48.650;8.774;2023-02-21T17:28:42;3.47;;;0.87;;
12970;SDS011;6550;48.650;8.774;2023-02-21T17:31:08;1.27;;;0.73;;
12970;SDS011;6550;48.650;8.774;2023-02-21T17:33:38;2.83;;;0.80;;
12970;SDS011;6550;48.650;8.774;2023-02-21T17:36:05;2.37;;;0.93;;
12970;SDS011;6550;48.650;8.774;2023-02-21T17:38:32;3.17;;;1.00;;
12970;SDS011;6550;48.650;8.774;2023-02-21T17:40:59;1.17;;;0.77;;
12970;SDS011;6550;48.650;8.774;2023-02-21T17:43:29;2.10;;;0.70;;
12970;SDS011;6550;48.650;8.774;2023-02-21T17:45:58;1.43;;;1.00;;
12970;SDS011;6550;48.650;8.774;2023-02-21T17:48:27;3.50;;;1.00;;
12970;SDS011;6550;48.650;8.774;2023-02-21T17:50:54;2.67;;;0.90;;
12970;SDS011;6550;48.650;8.774;2023-02-21T17:53:21;4.40;;;1.27;;
12970;SDS011;6550;48.650;8.774;2023-02-21T17:55:50;2.03;;;1.10;;
12970;SDS011;6550;48.650;8.774;2023-02-21T17:58:16;4.07;;;1.07;;
12970;SDS011;6550;48.650;8.774;2023-02-21T18:00:45;1.37;;;1.10;;
12970;SDS011;6550;48.650;8.774;2023-02-21T18:03:12;1.80;;;1.03;;
12970;SDS011;6550;48.650;8.774;2023-02-21T18:05:39;2.43;;;1.20;;
12970;SDS011;6550;48.650;8.774;2023-02-21T18:08:08;3.33;;;1.30;;
12970;SDS011;6550;48.650;8.774;2023-02-21T18:10:37;3.80;;;1.30;;
12970;SDS011;6550;48.650;8.774;2023-02-21T18:13:12;2.87;;;1.40;;
12970;SDS011;6550;48.650;8.774;2023-02-21T18:15:47;3.30;;;1.63;;
12970;SDS011;6550;48.650;8.774;2023-02-21T18:18:16;3.23;;;1.00;;
12970;SDS011;6550;48.650;8.774;2023-02-21T18:20:43;4.47;;;1.47;;
12970;SDS011;6550;48.650;8.774;2023-02-21T18:23:12;2.40;;;1.30;;
12970;SDS011;6550;48.650;8.774;2023-02-21T18:25:44;3.50;;;1.60;;
12970;SDS011;6550;48.650;8.774;2023-02-21T18:28:11;1.83;;;1.40;;
12970;SDS011;6550;48.650;8.774;2023-02-21T18:30:38;3.77;;;1.40;;
12970;SDS011;6550;48.650;8.774;2023-02-21T18:33:05;2.60;;;1.40;;
12970;SDS011;6550;48.650;8.774;2023-02-21T18:35:32;4.70;;;1.80;;
12970;SDS011;6550;48.650;8.774;2023-02-21T18:38:01;4.50;;;1.53;;
12970;SDS011;6550;48.650;8.774;2023-02-21T18:40:27;3.00;;;1.48;;
12970;SDS011;6550;48.650;8.774;2023-02-21T18:43:03;3.30;;;1.80;;
12970;SDS011;6550;48.650;8.774;2023-02-21T18:45:38;5.63;;;1.70;;
12970;SDS011;6550;48.650;8.774;2023-02-21T18:48:05;3.90;;;1.87;;
12970;SDS011;6550;48.650;8.774;2023-02-21T18:50:32;2.63;;;1.60;;
12970;SDS011;6550;48.650;8.774;2023-02-21T18:53:00;3.07;;;1.73;;
12970;SDS011;6550;48.650;8.774;2023-02-21T18:55:31;2.43;;;1.50;;
12970;SDS011;6550;48.650;8.774;2023-02-21T18:58:00;2.45;;;1.80;;
12970;SDS011;6550;48.650;8.774;2023-02-21T19:00:29;5.47;;;2.20;;
12970;SDS011;6550;48.650;8.774;2023-02-21T19:02:59;2.77;;;2.00;;
12970;SDS011;6550;48.650;8.774;2023-02-21T19:05:26;4.47;;;1.80;;
12970;SDS011;6550;48.650;8.774;2023-02-21T19:07:56;2.80;;;1.80;;
12970;SDS011;6550;48.650;8.774;2023-02-21T19:10:25;4.50;;;1.90;;